TimeCDT,TemperatureF,Dew PointF,Humidity,Sea Level PressureIn,VisibilityMPH,Wind Direction,Wind SpeedMPH,Gust SpeedMPH,PrecipitationIn,Events,Conditions,WindDirDegrees,DateUTC
12:52 AM,37.0,28.9,73,30.28,10.0,North,8.1,-,N/A,,Clear,360,2012-10-28 05:52:00
1:52 AM,35.1,28.0,76,30.28,10.0,North,8.1,-,N/A,,Clear,360,2012-10-28 06:52:00
2:52 AM,35.1,28.0,76,30.28,10.0,North,8.1,-,N/A,,Clear,350,2012-10-28 07:52:00
3:52 AM,35.1,28.0,76,30.27,10.0,North,8.1,-,N/A,,Clear,360,2012-10-28 08:52:00
4:52 AM,34.0,27.0,75,30.27,10.0,North,8.1,-,N/A,,Clear,350,2012-10-28 09:52:00
5:52 AM,33.1,27.0,78,30.28,10.0,NNW,8.1,-,N/A,,Clear,340,2012-10-28 10:52:00
6:52 AM,33.1,26.1,75,30.28,10.0,North,8.1,-,N/A,,Clear,350,2012-10-28 11:52:00
7:52 AM,33.1,27.0,78,30.28,10.0,North,8.1,-,N/A,,Scattered Clouds,350,2012-10-28 12:52:00
8:52 AM,36.0,28.0,73,30.29,10.0,North,10.4,-,N/A,,Mostly Cloudy,350,2012-10-28 13:52:00
9:52 AM,41.0,30.0,65,30.29,10.0,North,10.4,-,N/A,,Mostly Cloudy,10,2012-10-28 14:52:00
10:52 AM,45.0,34.0,65,30.29,10.0,NNE,8.1,-,N/A,,Scattered Clouds,20,2012-10-28 15:52:00
11:52 AM,48.0,35.1,61,30.29,10.0,North,13.8,-,N/A,,Clear,360,2012-10-28 16:52:00
12:52 PM,48.0,34.0,58,30.27,10.0,NE,6.9,-,N/A,,Partly Cloudy,40,2012-10-28 17:52:00
1:52 PM,50.0,35.1,57,30.26,10.0,NE,10.4,-,N/A,,Mostly Cloudy,50,2012-10-28 18:52:00
2:52 PM,51.1,33.1,50,30.25,10.0,ENE,6.9,-,N/A,,Scattered Clouds,60,2012-10-28 19:52:00
3:52 PM,48.9,30.9,50,30.25,10.0,North,9.2,-,N/A,,Overcast,360,2012-10-28 20:52:00
4:52 PM,48.9,32.0,52,30.25,10.0,North,10.4,-,N/A,,Mostly Cloudy,10,2012-10-28 21:52:00
5:52 PM,46.0,30.9,56,30.26,10.0,North,4.6,-,N/A,,Mostly Cloudy,360,2012-10-28 22:52:00
6:52 PM,44.1,30.0,58,30.26,10.0,NNW,3.5,-,N/A,,Clear,340,2012-10-28 23:52:00
7:52 PM,39.0,28.9,67,30.27,10.0,North,6.9,-,N/A,,Clear,360,2012-10-29 00:52:00
8:52 PM,37.0,28.9,73,30.28,10.0,NNE,5.8,-,N/A,,Clear,20,2012-10-29 01:52:00
9:52 PM,37.0,28.9,73,30.29,10.0,North,6.9,-,N/A,,Clear,10,2012-10-29 02:52:00
10:52 PM,36.0,28.0,73,30.30,10.0,North,6.9,-,N/A,,Clear,10,2012-10-29 03:52:00
11:52 PM,34.0,28.0,79,30.30,10.0,NNW,6.9,-,N/A,,Clear,340,2012-10-29 04:52:00